Seabourn Sojourn — C6YA5 — position and weather

sailwx.info

Track history (hours):
 
Tides and Currents Weather Stations Pressure Air Temp Water Temp Dewpoint Dewpoint Depression Visibility Wind Speed Wind Dir Waves Ship Positions

Seabourn Sojourn

Last reported at 2020-Apr-05 07:00 UTC. Time now 2020-Apr-05 08:01 UTC.
Position S 24°48' E 171°24'.

Length 198 m; draft 6.6 m.

Type: Ship. MMSI: 311027100.

Wind from 100 at 28 knots

Barometer 1012.0 mb

Date/timePositionNaut miles runAvg speedWind from/ knotsBaromVisibWave heightAir tempDewpointWater temp
2020-Apr-05 07:00S 24°48' E 171°24'6766.9 100 / 281012.0
2020-Apr-05 06:00S 25°54' E 171°12'5555.1 1012.0
2020-Apr-05 05:00S 25°00' E 171°00'2010.1 1011.0
2020-Apr-05 03:00S 25°12' E 170°42'1212.4 080 / 251011.0
2020-Apr-05 02:00S 25°18' E 170°30'1212.4 080 / 251013.0
2020-Apr-05 01:00S 25°24' E 170°18'8 8.1 080 / 251013.0
2020-Apr-05 00:00S 25°30' E 170°12'2222.5 080 / 251013.0
2020-Apr-04 23:00S 25°36' E 169°48'6 6.0 090 / 251013.0
2020-Apr-04 22:00S 25°42' E 169°48'1212.4 090 / 271013.0
2020-Apr-04 21:00S 25°48' E 169°36'1212.4 1015.0
2020-Apr-04 20:00S 25°54' E 169°24'4511.2 1014.0
2020-Apr-04 16:00S 26°18' E 168°42'1212.3 090 / 301013.0
2020-Apr-04 15:00S 26°24' E 168°30'1717.2 090 / 301013.0
2020-Apr-04 14:00S 26°30' E 168°12'0 0.0 090 / 291016.0
2020-Apr-04 13:00S 26°30' E 168°12'1212.3 090 / 291016.0
2020-Apr-04 12:00S 26°36' E 168°00'1212.3 090 / 291014.0
2020-Apr-04 11:00S 26°42' E 167°48'1212.3 080 / 331014.0
2020-Apr-04 10:00S 26°48' E 167°36'1212.3 080 / 331014.0
2020-Apr-04 09:00S 26°54' E 167°24'1212.3 080 / 331014.0
2020-Apr-04 08:00S 27°00' E 167°12'1212.3 080 / 331013.0
2020-Apr-04 07:00S 27°06' E 167°00'1212.2 080 / 331011.0
2020-Apr-04 06:00S 27°12' E 166°48'1212.2 080 / 331011.0
2020-Apr-04 05:00S 27°18' E 166°36'8 8.0 1011.0
2020-Apr-04 04:00S 27°24' E 166°30'1212.2 1011.0
2020-Apr-04 03:00S 27°30' E 166°18'1212.2 090 / 241011.0
2020-Apr-04 02:00S 27°36' E 166°06'1212.2 090 / 241012.0
2020-Apr-04 01:00S 27°42' E 165°54'2412.2 090 / 241012.0
2020-Apr-03 23:00S 27°54' E 165°30'8 8.0 090 / 241013.0
2020-Apr-03 22:00S 28°00' E 165°24'1212.2 090 / 251013.0
2020-Apr-03 21:00S 28°06' E 165°12'1212.2 1015.0
2020-Apr-03 20:00S 28°12' E 165°00'4110.3 1015.0
2020-Apr-03 16:00S 28°30' E 164°18'2412.1 080 / 201012.0
2020-Apr-03 14:00S 28°42' E 163°54'1212.1 080 / 201014.0
2020-Apr-03 13:00S 28°48' E 163°42'1212.1 080 / 201014.0
2020-Apr-03 12:00S 28°54' E 163°30'1212.1 080 / 201014.0
2020-Apr-03 11:00S 29°00' E 163°18'1212.1 040 / 121014.0
2020-Apr-03 10:00S 29°06' E 163°06'1212.1 040 / 121014.0
2020-Apr-03 09:00S 29°12' E 162°54'8 8.0 040 / 121013.0
2020-Apr-03 08:00S 29°18' E 162°48'1212.1 040 / 121012.0
2020-Apr-03 07:00S 29°24' E 162°36'1212.0 040 / 121012.0
2020-Apr-03 06:00S 29°30' E 162°24'29 9.6 1011.0
2020-Apr-03 03:00S 29°42' E 161°54'2019.7 040 / 121012.0
2020-Apr-03 02:00S 29°54' E 161°36'1212.0 040 / 121013.0
2020-Apr-03 01:00S 30°00' E 161°24'17 8.3 040 / 121013.0
2020-Apr-02 23:00S 30°06' E 161°06'1212.0 040 / 121013.0
2020-Apr-02 22:00S 30°12' E 160°54'6711.2 040 / 121013.0
2020-Apr-02 16:00S 30°48' E 159°48'1211.9 080 / 111013.0
2020-Apr-02 15:00S 30°54' E 159°36'2411.9 080 / 111013.0
2020-Apr-02 13:00S 31°06' E 159°12'1211.9 080 / 111014.0
2020-Apr-02 12:00S 31°12' E 159°00'   080 / 151014.0
Track history (hours):
 
Tides and Currents Weather Stations Pressure Air Temp Water Temp Dewpoint Dewpoint Depression Visibility Wind Speed Wind Dir Waves Ship Positions

Seabourn Sojourn

Last reported at 2020-Apr-05 07:00 UTC. Time now 2020-Apr-05 08:01 UTC.
Position S 24°48' E 171°24'.

Length 198 m; draft 6.6 m.

Type: Ship. MMSI: 311027100.

Wind from 100 at 28 knots

Barometer 1012.0 mb

Date/timePositionNaut miles runAvg speedWind from/ knotsBaromVisibWave heightAir tempDewpointWater temp
2020-Apr-05 07:00S 24°48' E 171°24'6766.9 100 / 281012.0
2020-Apr-05 06:00S 25°54' E 171°12'5555.1 1012.0
2020-Apr-05 05:00S 25°00' E 171°00'2010.1 1011.0
2020-Apr-05 03:00S 25°12' E 170°42'1212.4 080 / 251011.0
2020-Apr-05 02:00S 25°18' E 170°30'1212.4 080 / 251013.0
2020-Apr-05 01:00S 25°24' E 170°18'8 8.1 080 / 251013.0
2020-Apr-05 00:00S 25°30' E 170°12'2222.5 080 / 251013.0
2020-Apr-04 23:00S 25°36' E 169°48'6 6.0 090 / 251013.0
2020-Apr-04 22:00S 25°42' E 169°48'1212.4 090 / 271013.0
2020-Apr-04 21:00S 25°48' E 169°36'1212.4 1015.0
2020-Apr-04 20:00S 25°54' E 169°24'4511.2 1014.0
2020-Apr-04 16:00S 26°18' E 168°42'1212.3 090 / 301013.0
2020-Apr-04 15:00S 26°24' E 168°30'1717.2 090 / 301013.0
2020-Apr-04 14:00S 26°30' E 168°12'0 0.0 090 / 291016.0
2020-Apr-04 13:00S 26°30' E 168°12'1212.3 090 / 291016.0
2020-Apr-04 12:00S 26°36' E 168°00'1212.3 090 / 291014.0
2020-Apr-04 11:00S 26°42' E 167°48'1212.3 080 / 331014.0
2020-Apr-04 10:00S 26°48' E 167°36'1212.3 080 / 331014.0
2020-Apr-04 09:00S 26°54' E 167°24'1212.3 080 / 331014.0
2020-Apr-04 08:00S 27°00' E 167°12'1212.3 080 / 331013.0
2020-Apr-04 07:00S 27°06' E 167°00'1212.2 080 / 331011.0
2020-Apr-04 06:00S 27°12' E 166°48'1212.2 080 / 331011.0
2020-Apr-04 05:00S 27°18' E 166°36'8 8.0 1011.0
2020-Apr-04 04:00S 27°24' E 166°30'1212.2 1011.0
2020-Apr-04 03:00S 27°30' E 166°18'1212.2 090 / 241011.0
2020-Apr-04 02:00S 27°36' E 166°06'1212.2 090 / 241012.0
2020-Apr-04 01:00S 27°42' E 165°54'2412.2 090 / 241012.0
2020-Apr-03 23:00S 27°54' E 165°30'8 8.0 090 / 241013.0
2020-Apr-03 22:00S 28°00' E 165°24'1212.2 090 / 251013.0
2020-Apr-03 21:00S 28°06' E 165°12'1212.2 1015.0
2020-Apr-03 20:00S 28°12' E 165°00'4110.3 1015.0
2020-Apr-03 16:00S 28°30' E 164°18'2412.1 080 / 201012.0
2020-Apr-03 14:00S 28°42' E 163°54'1212.1 080 / 201014.0
2020-Apr-03 13:00S 28°48' E 163°42'1212.1 080 / 201014.0
2020-Apr-03 12:00S 28°54' E 163°30'1212.1 080 / 201014.0
2020-Apr-03 11:00S 29°00' E 163°18'1212.1 040 / 121014.0
2020-Apr-03 10:00S 29°06' E 163°06'1212.1 040 / 121014.0
2020-Apr-03 09:00S 29°12' E 162°54'8 8.0 040 / 121013.0
2020-Apr-03 08:00S 29°18' E 162°48'1212.1 040 / 121012.0
2020-Apr-03 07:00S 29°24' E 162°36'1212.0 040 / 121012.0
2020-Apr-03 06:00S 29°30' E 162°24'29 9.6 1011.0
2020-Apr-03 03:00S 29°42' E 161°54'2019.7 040 / 121012.0
2020-Apr-03 02:00S 29°54' E 161°36'1212.0 040 / 121013.0
2020-Apr-03 01:00S 30°00' E 161°24'17 8.3 040 / 121013.0
2020-Apr-02 23:00S 30°06' E 161°06'1212.0 040 / 121013.0
2020-Apr-02 22:00S 30°12' E 160°54'6711.2 040 / 121013.0
2020-Apr-02 16:00S 30°48' E 159°48'1211.9 080 / 111013.0
2020-Apr-02 15:00S 30°54' E 159°36'2411.9 080 / 111013.0
2020-Apr-02 13:00S 31°06' E 159°12'1211.9 080 / 111014.0
2020-Apr-02 12:00S 31°12' E 159°00'   080 / 151014.0

Dump ship's entire track history